• Join FlightAware (Why Join?)
  • Login
  • US Flag 
12:44PM EDT


 

Airport Tracker/Info


-or-


 

Live Flight TrackerFlight Track Log ✈ SWA1017 ✈ 30-Apr-2013 ✈ KHRL - KAUS

Flight Track Log - Related Links

Times and Time Zones

All times are in EDT time to prevent confusion due to time zone crossing. See the SWA1017 flight status page for this flight to view local times or setup timezone preferences in your user account.

Time Position Orientation Groundspeed Altitude Reporting Facility
EDT Latitude Longitude Course Direction KTS MPH feet Rate Location/Type
02:59PM 26.2233 -97.6047 10° North 207 238 2,800  Level Houston Center
03:00PM 26.2597 -97.5989 North 210 242 4,700 2,520 Climbing Houston Center
03:00PM 26.2833 -97.5967 North 239 275 5,400 3,000 Climbing Houston Center
03:01PM 26.3375 -97.5908 North 266 306 7,900 3,540 Climbing Houston Center
03:02PM 26.4189 -97.5825 North 291 335 11,400 3,480 Climbing Houston Center
03:03PM 26.5208 -97.5739 North 337 388 15,100 3,660 Climbing Houston Center
03:04PM 26.7817 -97.5703 10° North  Level FlightAware Approximate
03:04PM 26.6211 -97.5642 North 359 413 19,000  Level Houston Center
03:05PM 26.7244 -97.5533 North 382 440 21,900 2,340 Climbing Houston Center
03:06PM 26.8472 -97.5422 North 415 478 23,900 2,220 Climbing Houston Center
03:07PM 26.9636 -97.5328 North 405 466 26,500 2,340 Climbing Houston Center
03:08PM 27.0861 -97.5561 350° North 426 490 28,800 2,220 Climbing Houston Center
03:09PM 27.2006 -97.6006 341° North 424 488 31,100 2,280 Climbing Houston Center
03:10PM 27.3158 -97.6392 343° North 430 495 33,600 1,380 Climbing Houston Center
03:11PM 27.4289 -97.6772 343° North 426 490 34,000 180 Climbing Houston Center
03:12PM 27.5392 -97.7172 342° North 419 482 34,000  Level Houston Center
03:13PM 27.6522 -97.7556 343° North 423 487 34,000  Level Houston Center
03:14PM 27.7853 -97.8014 343° North 420 483 34,000  Level Houston Center
03:15PM 27.8969 -97.8400 343° North 420 483 34,000  Level Houston Center
03:16PM 28.0094 -97.8797 343° North 423 487 34,000  Level Houston Center
03:17PM 28.1231 -97.9197 343° North 427 491 34,000  Level Houston Center
03:18PM 28.2514 -97.9644 343° North 425 489 34,000  Level Houston Center
03:19PM 28.3633 -98.0039 343° North 422 486 34,000  Level Houston Center
03:20PM 28.4744 -98.0433 343° North 419 482 34,000  Level Houston Center
03:21PM 28.5856 -98.0828 343° North 418 481 34,000  Level Houston Center
03:22PM 28.6983 -98.1225 343° North 420 483 34,000  Level Houston Center
03:23PM 28.8294 -98.1686 343° North 423 487 34,000  Level Houston Center
03:24PM 28.9403 -98.2097 342° North 419 482 34,000  Level Houston Center
03:26PM 29.0594 -98.2514 343° North 415 478 34,000  Level Houston Center
03:27PM 29.1692 -98.2908 343° North 414 476 34,000 -540 Level Houston Center
03:28PM 29.2881 -98.3328 343° North 413 475 33,000 -1,740 Descending Houston Center
03:29PM 29.3947 -98.3714 342° North 405 466 30,500 -2,220 Descending Houston Center
03:30PM 29.5000 -98.4081 343° North 397 457 28,500 -2,280 Descending Houston Center
03:31PM 29.5931 -98.4428 342° North 389 448 25,800 -2,520 Descending Houston Center
03:32PM 29.7119 -98.4133 12° North 376 433 23,300 -2,160 Descending Houston Center
03:33PM 29.8072 -98.3814 16° North 357 411 21,400 -1,800 Descending Houston Center
03:34PM 29.9000 -98.3578 12° North 343 395 19,700 -1,800 Descending Houston Center
03:35PM 29.9742 -98.2797 42° Northeast 340 391 17,700 -1,860 Descending Houston Center
03:36PM 30.0403 -98.2053 44° Northeast 332 382 15,900 -1,800 Descending Houston Center
03:37PM 30.1078 -98.1283 45° Northeast 316 364 14,100 -1,440 Descending Houston Center
03:38PM 30.1300 -98.0303 75° East 317 365 13,000 -1,500 Descending Houston Center
03:39PM 30.1453 -97.9342 80° East 306 352 11,000 -2,100 Descending Houston Center
03:40PM 30.1628 -97.8369 78° East 298 343 8,700 -2,280 Descending Houston Center
03:41PM 30.2236 -97.7897 34° Northeast 301 346 6,400 -1,560 Descending Houston Center
03:42PM 30.2969 -97.7886 North 270 311 5,500 -960 Descending Houston Center
03:43PM 30.3631 -97.7928 357° North 240 276 4,500 -1,080 Descending Houston Center
03:44PM 30.3950 -97.7461 52° Northeast 236 272 3,300 -780 Descending Houston Center
03:45PM 30.3592 -97.6914 127° Southeast 220 253 3,000 -480 Descending Houston Center
03:46PM 30.3081 -97.6817 171° South 200 230 2,400 -780 Descending Houston Center
03:47PM 30.2600 -97.6811 179° South 165 190 1,500 -600 Descending Houston Center
03:48PM 30.2231 -97.6786 177° South 151 174 1,200 -300 Descending Houston Center